createdAt,value
2023-10-20T00:04:45.488Z,12.53
2023-10-20T00:09:48.321Z,15.00
2023-10-20T00:14:50.728Z,11.00
2023-10-20T00:19:53.369Z,9.30
2023-10-20T00:24:56.223Z,11.20
2023-10-20T00:29:58.769Z,13.57
2023-10-20T00:35:05.129Z,13.93
2023-10-20T00:40:12.200Z,11.57
2023-10-20T00:45:14.841Z,12.03
2023-10-20T00:50:18.239Z,11.87
2023-10-20T00:55:23.063Z,9.30
2023-10-20T01:00:25.532Z,12.27
2023-10-20T01:05:28.398Z,10.07
2023-10-20T01:10:31.044Z,8.50
2023-10-20T01:15:34.068Z,9.27
2023-10-20T01:20:36.817Z,10.53
2023-10-20T01:25:39.438Z,8.27
2023-10-20T01:30:43.062Z,7.47
2023-10-20T01:35:45.614Z,6.93
2023-10-20T01:40:48.153Z,12.90
2023-10-20T01:45:50.880Z,5.93
2023-10-20T01:50:53.321Z,6.37
2023-10-20T01:55:55.809Z,7.10
2023-10-20T02:00:58.769Z,6.00
2023-10-20T02:06:01.424Z,6.07
2023-10-20T02:11:04.060Z,6.07
2023-10-20T02:16:11.353Z,7.77
2023-10-20T02:21:14.240Z,5.03
2023-10-20T02:26:18.146Z,6.37
2023-10-20T02:31:20.636Z,6.60
2023-10-20T02:36:23.726Z,6.80
2023-10-20T02:41:26.826Z,6.67
2023-10-20T02:46:29.421Z,6.90
2023-10-20T02:51:31.915Z,5.60
2023-10-20T02:56:34.778Z,7.20
2023-10-20T03:01:39.359Z,7.40
2023-10-20T03:06:42.981Z,4.80
2023-10-20T03:11:45.488Z,4.33
2023-10-20T03:16:48.033Z,6.50
2023-10-20T03:21:50.531Z,5.87
2023-10-20T03:26:53.031Z,4.60
2023-10-20T03:31:55.642Z,5.53
2023-10-20T03:36:58.265Z,6.50
2023-10-20T03:42:02.471Z,4.90
2023-10-20T03:47:06.863Z,7.67
2023-10-20T03:52:13.242Z,5.00
2023-10-20T03:57:17.115Z,5.30
2023-10-20T04:02:19.764Z,5.43
2023-10-20T04:07:22.295Z,5.83
2023-10-20T04:12:24.745Z,4.67
2023-10-20T04:17:27.371Z,5.30
2023-10-20T04:22:31.029Z,6.00
2023-10-20T04:27:52.368Z,5.00
2023-10-20T04:33:13.704Z,6.53
2023-10-20T04:38:35.099Z,4.90
2023-10-20T04:43:44.255Z,4.60
2023-10-20T04:48:58.948Z,5.33
2023-10-20T04:54:22.370Z,4.53
2023-10-20T04:59:25.321Z,5.03
2023-10-20T05:04:38.570Z,4.97
2023-10-20T05:09:44.785Z,4.83
2023-10-20T05:14:51.044Z,5.83
2023-10-20T05:19:54.940Z,3.73
2023-10-20T05:24:57.616Z,4.33
2023-10-20T05:30:00.122Z,5.47
2023-10-20T05:35:02.785Z,3.87
2023-10-20T05:40:06.270Z,6.37
2023-10-20T05:45:14.546Z,3.03
2023-10-20T05:50:17.202Z,4.40
2023-10-20T05:55:19.877Z,4.83
2023-10-20T06:00:22.462Z,11.30
2023-10-20T06:05:25.065Z,5.53
2023-10-20T06:10:27.777Z,4.17
2023-10-20T06:15:30.347Z,6.33
2023-10-20T06:20:32.943Z,3.40
2023-10-20T06:25:36.988Z,5.40
2023-10-20T06:30:44.825Z,4.47
2023-10-20T06:35:54.212Z,3.57
2023-10-20T06:40:57.384Z,2.63
2023-10-20T06:46:01.662Z,3.13
2023-10-20T06:51:04.302Z,6.17
2023-10-20T06:56:16.554Z,3.97
2023-10-20T07:01:20.417Z,4.77
2023-10-20T07:06:23.258Z,8.07
2023-10-20T07:11:25.888Z,6.73
2023-10-20T07:16:28.718Z,6.60
2023-10-20T07:21:31.743Z,7.10
2023-10-20T07:26:34.324Z,7.70
2023-10-20T07:31:39.409Z,6.33
2023-10-20T07:36:42.507Z,4.87
2023-10-20T07:41:45.683Z,5.77
2023-10-20T07:46:48.231Z,7.53
2023-10-20T07:51:50.678Z,11.80
2023-10-20T07:56:53.304Z,5.10
2023-10-20T08:01:57.335Z,7.33
2023-10-20T08:07:00.811Z,4.00
2023-10-20T08:12:04.092Z,4.70
2023-10-20T08:17:08.916Z,10.70
2023-10-20T08:22:11.449Z,4.30
2023-10-20T08:27:15.494Z,6.27
2023-10-20T08:32:18.082Z,10.33
2023-10-20T08:37:20.928Z,5.03
2023-10-20T08:42:23.464Z,4.10
2023-10-20T08:47:31.078Z,8.00
2023-10-20T08:52:34.447Z,3.33
2023-10-20T08:57:37.008Z,5.40
2023-10-20T09:02:40.077Z,6.20
2023-10-20T09:07:54.550Z,4.47
2023-10-20T09:12:57.067Z,6.30
2023-10-20T09:18:03.213Z,6.97
2023-10-20T09:23:12.819Z,10.97
2023-10-20T09:28:18.798Z,7.00
2023-10-20T09:33:22.585Z,4.00
2023-10-20T09:38:29.528Z,4.10
2023-10-20T09:43:37.166Z,7.73
2023-10-20T09:48:41.734Z,2.80
2023-10-20T09:53:45.504Z,8.10
2023-10-20T09:58:52.118Z,5.90
2023-10-20T10:04:04.962Z,7.83
2023-10-20T10:09:09.045Z,7.27
2023-10-20T10:14:22.488Z,10.10
2023-10-20T10:19:27.383Z,11.47
2023-10-20T10:24:37.720Z,5.57
2023-10-20T10:29:59.992Z,7.80
2023-10-20T10:35:05.160Z,8.13
2023-10-20T10:40:16.420Z,8.27
2023-10-20T10:45:34.729Z,7.17
2023-10-20T10:50:39.370Z,5.10
2023-10-20T10:55:43.028Z,5.93
2023-10-20T11:00:46.794Z,9.83
2023-10-20T11:05:50.870Z,7.50
2023-10-20T11:10:53.307Z,6.13
2023-10-20T11:15:55.873Z,4.53
2023-10-20T11:20:58.415Z,7.43
2023-10-20T11:26:01.767Z,8.60
2023-10-20T11:31:04.483Z,6.67
2023-10-20T11:36:08.060Z,6.90
2023-10-20T11:41:11.738Z,5.07
2023-10-20T11:46:14.257Z,6.50
2023-10-20T11:51:16.967Z,5.70
2023-10-20T11:56:19.683Z,6.97
2023-10-20T12:01:22.279Z,4.47
2023-10-20T12:06:24.995Z,6.73
2023-10-20T12:11:27.606Z,6.93
2023-10-20T12:16:30.845Z,13.20
2023-10-20T12:21:33.482Z,4.60
2023-10-20T12:26:37.857Z,7.63
2023-10-20T12:31:40.529Z,7.50
2023-10-20T12:36:44.066Z,8.30
2023-10-20T12:41:47.090Z,8.67
2023-10-20T12:46:49.763Z,8.37
2023-10-20T12:51:52.341Z,7.87
2023-10-20T12:56:55.354Z,6.97
2023-10-20T13:01:57.844Z,4.40
2023-10-20T13:07:01.384Z,6.53
2023-10-20T13:12:04.203Z,7.70
2023-10-20T13:17:06.859Z,9.17
2023-10-20T13:22:09.349Z,7.20
2023-10-20T13:27:13.910Z,4.37
2023-10-20T13:32:16.699Z,4.17
2023-10-20T13:37:19.213Z,7.80
2023-10-20T13:42:21.708Z,6.10
2023-10-20T13:47:24.269Z,5.67
2023-10-20T13:52:26.772Z,7.13
2023-10-20T13:57:30.418Z,5.90
2023-10-20T14:02:33.552Z,5.53
2023-10-20T14:07:36.277Z,4.43
2023-10-20T14:12:38.688Z,3.53
2023-10-20T14:17:41.617Z,4.37
2023-10-20T14:22:44.464Z,4.37
2023-10-20T14:27:47.247Z,5.47
2023-10-20T14:32:49.850Z,5.43
2023-10-20T14:37:52.530Z,8.23
2023-10-20T14:42:55.005Z,3.07
2023-10-20T14:47:57.503Z,3.67
2023-10-20T14:53:00.834Z,4.13
2023-10-20T14:58:03.453Z,6.00
2023-10-20T15:03:07.279Z,4.90
2023-10-20T15:08:10.405Z,5.20
2023-10-20T15:13:15.862Z,3.07
2023-10-20T15:18:19.571Z,3.00
2023-10-20T15:23:22.317Z,4.17
2023-10-20T15:28:25.049Z,4.40
2023-10-20T15:33:28.101Z,5.20
2023-10-20T15:38:34.288Z,2.93
2023-10-20T15:43:37.072Z,4.37
2023-10-20T15:48:40.425Z,3.93
2023-10-20T15:53:43.098Z,5.57
2023-10-20T15:58:45.859Z,3.70
2023-10-20T16:03:48.506Z,3.73
2023-10-20T16:08:54.353Z,3.20
2023-10-20T16:13:56.949Z,3.77
2023-10-20T16:18:59.414Z,3.60
2023-10-20T16:24:02.170Z,3.80
2023-10-20T16:29:04.693Z,3.27
2023-10-20T16:34:07.162Z,5.03
2023-10-20T16:39:09.990Z,2.93
2023-10-20T16:44:13.775Z,2.97
2023-10-20T16:49:16.575Z,3.03
2023-10-20T16:54:19.053Z,3.53
2023-10-20T16:59:27.098Z,3.40
2023-10-20T17:04:29.797Z,3.00
2023-10-20T17:09:35.996Z,2.77
2023-10-20T17:14:39.280Z,2.33
2023-10-20T17:19:41.868Z,3.03
2023-10-20T17:24:44.371Z,4.33
2023-10-20T17:29:50.763Z,2.73
2023-10-20T17:34:53.378Z,2.70
2023-10-20T17:39:55.953Z,2.50
2023-10-20T17:44:58.646Z,2.43
2023-10-20T17:50:01.138Z,2.90
2023-10-20T17:55:03.912Z,3.80
2023-10-20T18:00:07.349Z,3.73
2023-10-20T18:05:17.470Z,4.80
2023-10-20T18:10:19.995Z,2.90
2023-10-20T18:15:23.872Z,3.80
2023-10-20T18:20:26.705Z,3.33
2023-10-20T18:25:30.059Z,6.23
2023-10-20T18:30:32.457Z,2.73
2023-10-20T18:35:35.529Z,2.43
2023-10-20T18:40:38.250Z,4.17
2023-10-20T18:45:41.004Z,6.97
2023-10-20T18:50:43.876Z,2.67
2023-10-20T18:55:46.410Z,3.50
2023-10-20T19:00:49.098Z,3.70
2023-10-20T19:05:52.181Z,2.30
2023-10-20T19:10:54.854Z,2.03
2023-10-20T19:15:57.612Z,5.00
2023-10-20T19:21:01.542Z,4.23
2023-10-20T19:26:11.176Z,1.80
2023-10-20T19:31:15.335Z,2.20
2023-10-20T19:36:18.286Z,1.63
2023-10-20T19:41:20.896Z,2.63
2023-10-20T19:46:23.443Z,2.37
2023-10-20T19:51:26.608Z,2.43
2023-10-20T19:56:29.134Z,2.73
2023-10-20T20:01:31.652Z,4.47
2023-10-20T20:06:34.189Z,3.90
2023-10-20T20:11:36.674Z,2.20
2023-10-20T20:16:48.507Z,4.60
2023-10-20T20:21:51.122Z,1.53
2023-10-20T20:26:54.520Z,6.80
2023-10-20T20:31:57.074Z,5.37
2023-10-20T20:37:00.411Z,3.47
2023-10-20T20:42:02.965Z,2.50
2023-10-20T20:47:06.296Z,6.60
2023-10-20T20:52:09.132Z,4.93
2023-10-20T20:57:11.651Z,3.53
2023-10-20T21:02:14.147Z,2.53
2023-10-20T21:07:16.751Z,3.63
2023-10-20T21:12:19.595Z,3.67
2023-10-20T21:17:22.478Z,3.43
2023-10-20T21:22:25.051Z,3.63
2023-10-20T21:27:27.979Z,3.27
2023-10-20T21:32:30.608Z,4.13
2023-10-20T21:37:33.041Z,5.60
2023-10-20T21:42:37.627Z,4.03
2023-10-20T21:47:40.244Z,4.63
2023-10-20T21:52:43.516Z,6.50
2023-10-20T21:57:46.100Z,4.60
2023-10-20T22:02:48.591Z,3.83
2023-10-20T22:07:51.201Z,5.13
2023-10-20T22:12:53.718Z,3.20
2023-10-20T22:17:56.490Z,4.43
2023-10-20T22:22:59.036Z,3.93
2023-10-20T22:28:01.843Z,3.47
2023-10-20T22:33:04.786Z,4.13
2023-10-20T22:38:07.418Z,5.77
2023-10-20T22:43:09.903Z,2.50
2023-10-20T22:48:12.589Z,4.80
2023-10-20T22:53:15.222Z,3.87
2023-10-20T22:58:17.693Z,5.80
2023-10-20T23:03:20.297Z,5.27
2023-10-20T23:08:22.932Z,4.97
2023-10-20T23:13:26.582Z,5.30
2023-10-20T23:18:29.237Z,6.13
2023-10-20T23:23:32.013Z,6.10
2023-10-20T23:28:34.463Z,5.47
2023-10-20T23:33:37.322Z,5.30
2023-10-20T23:38:39.964Z,8.43
2023-10-20T23:43:42.548Z,4.37
2023-10-20T23:48:45.152Z,7.73
2023-10-20T23:53:48.905Z,6.73
2023-10-20T23:58:51.368Z,8.57
